sensor_id;sensor_type;location;lat;lon;timestamp;temperature;humidity
12872;DHT22;6504;53.766;9.626;2022-09-09T00:01:28;15.10;99.90
12872;DHT22;6504;53.766;9.626;2022-09-09T00:04:05;15.10;99.90
12872;DHT22;6504;53.766;9.626;2022-09-09T00:06:43;15.20;99.90
12872;DHT22;6504;53.766;9.626;2022-09-09T00:09:16;15.20;99.90
12872;DHT22;6504;53.766;9.626;2022-09-09T00:11:49;15.20;99.90
12872;DHT22;6504;53.766;9.626;2022-09-09T00:14:23;15.20;99.90
12872;DHT22;6504;53.766;9.626;2022-09-09T00:17:02;15.20;99.90
12872;DHT22;6504;53.766;9.626;2022-09-09T00:19:38;15.20;99.90
12872;DHT22;6504;53.766;9.626;2022-09-09T00:22:17;15.20;99.90
12872;DHT22;6504;53.766;9.626;2022-09-09T00:24:48;15.20;99.90
12872;DHT22;6504;53.766;9.626;2022-09-09T00:27:28;15.20;99.90
12872;DHT22;6504;53.766;9.626;2022-09-09T00:30:02;15.30;99.90
12872;DHT22;6504;53.766;9.626;2022-09-09T00:32:33;15.30;99.90
12872;DHT22;6504;53.766;9.626;2022-09-09T00:35:10;15.30;99.90
12872;DHT22;6504;53.766;9.626;2022-09-09T00:37:42;15.30;99.90
12872;DHT22;6504;53.766;9.626;2022-09-09T00:40:22;15.30;99.90
12872;DHT22;6504;53.766;9.626;2022-09-09T00:43:09;15.30;99.90
12872;DHT22;6504;53.766;9.626;2022-09-09T00:46:01;15.40;99.90
12872;DHT22;6504;53.766;9.626;2022-09-09T00:48:40;15.30;99.90
12872;DHT22;6504;53.766;9.626;2022-09-09T00:51:17;15.30;99.90
12872;DHT22;6504;53.766;9.626;2022-09-09T00:54:15;15.40;99.90
12872;DHT22;6504;53.766;9.626;2022-09-09T00:57:00;15.40;99.90
12872;DHT22;6504;53.766;9.626;2022-09-09T00:59:45;15.40;99.90
12872;DHT22;6504;53.766;9.626;2022-09-09T01:02:26;15.40;99.90
12872;DHT22;6504;53.766;9.626;2022-09-09T01:05:02;15.40;99.90
12872;DHT22;6504;53.766;9.626;2022-09-09T01:07:33;15.40;99.90
12872;DHT22;6504;53.766;9.626;2022-09-09T01:10:11;15.40;99.90
12872;DHT22;6504;53.766;9.626;2022-09-09T01:12:47;15.40;99.90
12872;DHT22;6504;53.766;9.626;2022-09-09T01:15:27;15.40;99.90
12872;DHT22;6504;53.766;9.626;2022-09-09T01:18:02;15.40;99.90
12872;DHT22;6504;53.766;9.626;2022-09-09T01:20:37;15.40;99.90
12872;DHT22;6504;53.766;9.626;2022-09-09T01:23:28;15.40;99.90
12872;DHT22;6504;53.766;9.626;2022-09-09T01:26:13;15.40;99.90
12872;DHT22;6504;53.766;9.626;2022-09-09T01:28:45;15.40;99.90
12872;DHT22;6504;53.766;9.626;2022-09-09T01:31:20;15.40;99.90
12872;DHT22;6504;53.766;9.626;2022-09-09T01:33:50;15.40;99.90
12872;DHT22;6504;53.766;9.626;2022-09-09T01:36:26;15.40;99.90
12872;DHT22;6504;53.766;9.626;2022-09-09T01:38:56;15.50;99.90
12872;DHT22;6504;53.766;9.626;2022-09-09T01:41:26;15.50;99.90
12872;DHT22;6504;53.766;9.626;2022-09-09T01:43:55;15.50;99.90
12872;DHT22;6504;53.766;9.626;2022-09-09T01:46:25;15.50;99.90
12872;DHT22;6504;53.766;9.626;2022-09-09T01:48:53;15.40;99.90
12872;DHT22;6504;53.766;9.626;2022-09-09T01:51:22;15.40;99.90
12872;DHT22;6504;53.766;9.626;2022-09-09T01:53:54;15.50;99.90
12872;DHT22;6504;53.766;9.626;2022-09-09T01:56:32;15.50;99.90
12872;DHT22;6504;53.766;9.626;2022-09-09T01:59:25;15.40;99.90
12872;DHT22;6504;53.766;9.626;2022-09-09T02:02:09;15.40;99.90
12872;DHT22;6504;53.766;9.626;2022-09-09T02:04:39;15.40;99.90
12872;DHT22;6504;53.766;9.626;2022-09-09T02:07:21;15.40;99.90
12872;DHT22;6504;53.766;9.626;2022-09-09T02:10:00;15.40;99.90
12872;DHT22;6504;53.766;9.626;2022-09-09T02:12:30;15.50;99.90
12872;DHT22;6504;53.766;9.626;2022-09-09T02:15:03;15.50;99.90
12872;DHT22;6504;53.766;9.626;2022-09-09T02:17:35;15.50;99.90
12872;DHT22;6504;53.766;9.626;2022-09-09T02:20:08;15.50;99.90
12872;DHT22;6504;53.766;9.626;2022-09-09T02:22:42;15.50;99.90
12872;DHT22;6504;53.766;9.626;2022-09-09T02:25:14;15.50;99.90
12872;DHT22;6504;53.766;9.626;2022-09-09T02:27:48;15.50;99.90
12872;DHT22;6504;53.766;9.626;2022-09-09T02:30:17;15.50;99.90
12872;DHT22;6504;53.766;9.626;2022-09-09T02:32:52;15.50;99.90
12872;DHT22;6504;53.766;9.626;2022-09-09T02:35:24;15.40;99.90
12872;DHT22;6504;53.766;9.626;2022-09-09T02:37:55;15.50;99.90
12872;DHT22;6504;53.766;9.626;2022-09-09T02:40:27;15.40;99.90
12872;DHT22;6504;53.766;9.626;2022-09-09T02:42:57;15.40;99.90
12872;DHT22;6504;53.766;9.626;2022-09-09T02:45:36;15.50;99.90
12872;DHT22;6504;53.766;9.626;2022-09-09T02:48:14;15.40;99.90
12872;DHT22;6504;53.766;9.626;2022-09-09T02:50:52;15.40;99.90
12872;DHT22;6504;53.766;9.626;2022-09-09T02:53:24;15.40;99.90
12872;DHT22;6504;53.766;9.626;2022-09-09T02:55:57;15.40;99.90
12872;DHT22;6504;53.766;9.626;2022-09-09T02:58:28;15.40;99.90
12872;DHT22;6504;53.766;9.626;2022-09-09T03:00:56;15.40;99.90
12872;DHT22;6504;53.766;9.626;2022-09-09T03:03:25;15.40;99.90
12872;DHT22;6504;53.766;9.626;2022-09-09T03:05:53;15.40;99.90
12872;DHT22;6504;53.766;9.626;2022-09-09T03:08:21;15.40;99.90
12872;DHT22;6504;53.766;9.626;2022-09-09T03:10:49;15.40;99.90
12872;DHT22;6504;53.766;9.626;2022-09-09T03:13:20;15.40;99.90
12872;DHT22;6504;53.766;9.626;2022-09-09T03:15:50;15.30;99.90
12872;DHT22;6504;53.766;9.626;2022-09-09T03:18:18;15.40;99.90
12872;DHT22;6504;53.766;9.626;2022-09-09T03:20:47;15.40;99.90
12872;DHT22;6504;53.766;9.626;2022-09-09T03:23:17;15.40;99.90
12872;DHT22;6504;53.766;9.626;2022-09-09T03:25:48;15.40;99.90
12872;DHT22;6504;53.766;9.626;2022-09-09T03:28:19;15.40;99.90
12872;DHT22;6504;53.766;9.626;2022-09-09T03:30:47;15.30;99.90
12872;DHT22;6504;53.766;9.626;2022-09-09T03:33:17;15.40;99.90
12872;DHT22;6504;53.766;9.626;2022-09-09T03:35:45;15.30;99.90
12872;DHT22;6504;53.766;9.626;2022-09-09T03:38:15;15.30;99.90
12872;DHT22;6504;53.766;9.626;2022-09-09T03:40:50;15.30;99.90
12872;DHT22;6504;53.766;9.626;2022-09-09T03:43:21;15.30;99.90
12872;DHT22;6504;53.766;9.626;2022-09-09T03:45:50;15.30;99.90
12872;DHT22;6504;53.766;9.626;2022-09-09T03:48:19;15.30;99.90
12872;DHT22;6504;53.766;9.626;2022-09-09T03:50:52;15.30;99.90
12872;DHT22;6504;53.766;9.626;2022-09-09T03:53:22;15.20;99.90
12872;DHT22;6504;53.766;9.626;2022-09-09T03:55:55;15.20;99.90
12872;DHT22;6504;53.766;9.626;2022-09-09T03:58:27;15.20;99.90
12872;DHT22;6504;53.766;9.626;2022-09-09T04:00:56;15.20;99.90
12872;DHT22;6504;53.766;9.626;2022-09-09T04:03:26;15.20;99.90
12872;DHT22;6504;53.766;9.626;2022-09-09T04:05:55;15.20;99.90
12872;DHT22;6504;53.766;9.626;2022-09-09T04:08:26;15.10;99.90
12872;DHT22;6504;53.766;9.626;2022-09-09T04:10:54;15.10;99.90
12872;DHT22;6504;53.766;9.626;2022-09-09T04:13:25;15.10;99.90
12872;DHT22;6504;53.766;9.626;2022-09-09T04:15:54;15.10;99.90
12872;DHT22;6504;53.766;9.626;2022-09-09T04:18:27;15.10;99.90
12872;DHT22;6504;53.766;9.626;2022-09-09T04:20:56;15.10;99.90
12872;DHT22;6504;53.766;9.626;2022-09-09T04:23:25;15.00;99.90
12872;DHT22;6504;53.766;9.626;2022-09-09T04:25:59;15.00;99.90
12872;DHT22;6504;53.766;9.626;2022-09-09T04:28:29;14.90;99.90
12872;DHT22;6504;53.766;9.626;2022-09-09T04:31:08;14.90;99.90
12872;DHT22;6504;53.766;9.626;2022-09-09T04:33:39;14.90;99.90
12872;DHT22;6504;53.766;9.626;2022-09-09T04:36:07;14.90;99.90
12872;DHT22;6504;53.766;9.626;2022-09-09T04:38:36;14.90;99.90
12872;DHT22;6504;53.766;9.626;2022-09-09T04:41:05;14.90;99.90
12872;DHT22;6504;53.766;9.626;2022-09-09T04:43:37;14.90;99.90
12872;DHT22;6504;53.766;9.626;2022-09-09T04:46:06;15.00;99.90
12872;DHT22;6504;53.766;9.626;2022-09-09T04:48:34;14.90;99.90
12872;DHT22;6504;53.766;9.626;2022-09-09T04:51:05;15.00;99.90
12872;DHT22;6504;53.766;9.626;2022-09-09T04:53:36;15.00;99.90
12872;DHT22;6504;53.766;9.626;2022-09-09T04:56:06;15.00;99.90
12872;DHT22;6504;53.766;9.626;2022-09-09T04:58:37;15.00;99.90
12872;DHT22;6504;53.766;9.626;2022-09-09T05:01:10;15.00;99.90
12872;DHT22;6504;53.766;9.626;2022-09-09T05:03:39;15.00;99.90
12872;DHT22;6504;53.766;9.626;2022-09-09T05:06:12;14.90;99.90
12872;DHT22;6504;53.766;9.626;2022-09-09T05:08:41;14.90;99.90
12872;DHT22;6504;53.766;9.626;2022-09-09T05:11:14;14.90;99.90
12872;DHT22;6504;53.766;9.626;2022-09-09T05:13:44;14.90;99.90
12872;DHT22;6504;53.766;9.626;2022-09-09T05:16:15;14.90;99.90
12872;DHT22;6504;53.766;9.626;2022-09-09T05:18:44;14.90;99.90
12872;DHT22;6504;53.766;9.626;2022-09-09T05:21:15;14.90;99.90
12872;DHT22;6504;53.766;9.626;2022-09-09T05:23:48;14.90;99.90
12872;DHT22;6504;53.766;9.626;2022-09-09T05:26:20;14.90;99.90
12872;DHT22;6504;53.766;9.626;2022-09-09T05:28:54;14.90;99.90
12872;DHT22;6504;53.766;9.626;2022-09-09T05:31:22;14.90;99.90
12872;DHT22;6504;53.766;9.626;2022-09-09T05:33:54;14.90;99.90
12872;DHT22;6504;53.766;9.626;2022-09-09T05:36:24;14.90;99.90
12872;DHT22;6504;53.766;9.626;2022-09-09T05:38:56;14.90;99.90
12872;DHT22;6504;53.766;9.626;2022-09-09T05:41:24;14.90;99.90
12872;DHT22;6504;53.766;9.626;2022-09-09T05:43:52;15.00;99.90
12872;DHT22;6504;53.766;9.626;2022-09-09T05:46:22;15.00;99.90
12872;DHT22;6504;53.766;9.626;2022-09-09T05:48:51;15.00;99.90
12872;DHT22;6504;53.766;9.626;2022-09-09T05:51:24;15.00;99.90
12872;DHT22;6504;53.766;9.626;2022-09-09T05:53:53;15.00;99.90
12872;DHT22;6504;53.766;9.626;2022-09-09T05:56:25;15.00;99.90
12872;DHT22;6504;53.766;9.626;2022-09-09T05:58:54;15.00;99.90
12872;DHT22;6504;53.766;9.626;2022-09-09T06:01:24;15.00;99.90
12872;DHT22;6504;53.766;9.626;2022-09-09T06:03:56;15.00;99.90
12872;DHT22;6504;53.766;9.626;2022-09-09T06:06:27;15.00;99.90
12872;DHT22;6504;53.766;9.626;2022-09-09T06:08:58;15.00;99.90
12872;DHT22;6504;53.766;9.626;2022-09-09T06:11:28;15.10;99.90
12872;DHT22;6504;53.766;9.626;2022-09-09T06:13:57;15.10;99.90
12872;DHT22;6504;53.766;9.626;2022-09-09T06:16:30;15.10;99.90
12872;DHT22;6504;53.766;9.626;2022-09-09T06:19:00;15.10;99.90
12872;DHT22;6504;53.766;9.626;2022-09-09T06:21:34;15.10;99.90
12872;DHT22;6504;53.766;9.626;2022-09-09T06:24:04;15.10;99.90
12872;DHT22;6504;53.766;9.626;2022-09-09T06:26:34;15.10;99.90
12872;DHT22;6504;53.766;9.626;2022-09-09T06:29:05;15.20;99.90
12872;DHT22;6504;53.766;9.626;2022-09-09T06:31:34;15.20;99.90
12872;DHT22;6504;53.766;9.626;2022-09-09T06:34:07;15.20;99.90
12872;DHT22;6504;53.766;9.626;2022-09-09T06:36:38;15.20;99.90
12872;DHT22;6504;53.766;9.626;2022-09-09T06:39:06;15.30;99.90
12872;DHT22;6504;53.766;9.626;2022-09-09T06:41:40;15.30;99.90
12872;DHT22;6504;53.766;9.626;2022-09-09T06:44:09;15.30;99.90
12872;DHT22;6504;53.766;9.626;2022-09-09T06:46:38;15.30;99.90
12872;DHT22;6504;53.766;9.626;2022-09-09T06:49:08;15.30;99.90
12872;DHT22;6504;53.766;9.626;2022-09-09T06:51:40;15.30;99.90
12872;DHT22;6504;53.766;9.626;2022-09-09T06:54:10;15.40;99.90
12872;DHT22;6504;53.766;9.626;2022-09-09T06:56:39;15.40;99.90
12872;DHT22;6504;53.766;9.626;2022-09-09T06:59:09;15.50;99.90
12872;DHT22;6504;53.766;9.626;2022-09-09T07:01:40;15.40;99.90
12872;DHT22;6504;53.766;9.626;2022-09-09T07:04:09;15.50;99.90
12872;DHT22;6504;53.766;9.626;2022-09-09T07:06:40;15.50;99.90
12872;DHT22;6504;53.766;9.626;2022-09-09T07:09:16;15.50;99.90
12872;DHT22;6504;53.766;9.626;2022-09-09T07:11:47;15.50;99.90
12872;DHT22;6504;53.766;9.626;2022-09-09T07:14:15;15.50;99.90
12872;DHT22;6504;53.766;9.626;2022-09-09T07:16:44;15.60;99.90
12872;DHT22;6504;53.766;9.626;2022-09-09T07:19:13;15.50;99.90
12872;DHT22;6504;53.766;9.626;2022-09-09T07:21:46;15.60;99.90
12872;DHT22;6504;53.766;9.626;2022-09-09T07:24:14;15.60;99.90
12872;DHT22;6504;53.766;9.626;2022-09-09T07:26:44;15.60;99.90
12872;DHT22;6504;53.766;9.626;2022-09-09T07:29:12;15.70;99.90
12872;DHT22;6504;53.766;9.626;2022-09-09T07:31:46;15.70;99.90
12872;DHT22;6504;53.766;9.626;2022-09-09T07:34:15;15.70;99.90
12872;DHT22;6504;53.766;9.626;2022-09-09T07:36:47;15.80;99.90
12872;DHT22;6504;53.766;9.626;2022-09-09T07:39:15;15.80;99.90
12872;DHT22;6504;53.766;9.626;2022-09-09T07:41:48;15.80;99.90
12872;DHT22;6504;53.766;9.626;2022-09-09T07:44:20;15.80;99.90
12872;DHT22;6504;53.766;9.626;2022-09-09T07:46:49;15.80;99.90
12872;DHT22;6504;53.766;9.626;2022-09-09T07:49:17;15.90;99.90
12872;DHT22;6504;53.766;9.626;2022-09-09T07:51:55;15.90;99.90
12872;DHT22;6504;53.766;9.626;2022-09-09T07:54:24;16.00;99.90
12872;DHT22;6504;53.766;9.626;2022-09-09T07:56:54;16.00;99.90
12872;DHT22;6504;53.766;9.626;2022-09-09T07:59:22;16.00;99.90
12872;DHT22;6504;53.766;9.626;2022-09-09T08:01:53;16.00;99.90
12872;DHT22;6504;53.766;9.626;2022-09-09T08:04:23;16.10;99.90
12872;DHT22;6504;53.766;9.626;2022-09-09T08:06:56;16.10;99.90
12872;DHT22;6504;53.766;9.626;2022-09-09T08:09:27;16.20;99.90
12872;DHT22;6504;53.766;9.626;2022-09-09T08:11:56;16.20;99.90
12872;DHT22;6504;53.766;9.626;2022-09-09T08:14:27;16.30;99.90
12872;DHT22;6504;53.766;9.626;2022-09-09T08:16:56;16.40;99.90
12872;DHT22;6504;53.766;9.626;2022-09-09T08:19:27;16.50;99.90
12872;DHT22;6504;53.766;9.626;2022-09-09T08:21:56;16.50;99.90
12872;DHT22;6504;53.766;9.626;2022-09-09T08:24:28;16.50;99.90
12872;DHT22;6504;53.766;9.626;2022-09-09T08:26:56;16.50;99.90
12872;DHT22;6504;53.766;9.626;2022-09-09T08:29:24;16.60;99.90
12872;DHT22;6504;53.766;9.626;2022-09-09T08:31:54;16.70;99.90
12872;DHT22;6504;53.766;9.626;2022-09-09T08:34:24;16.70;99.90
12872;DHT22;6504;53.766;9.626;2022-09-09T08:36:54;16.70;99.90
12872;DHT22;6504;53.766;9.626;2022-09-09T08:39:22;16.80;99.90
12872;DHT22;6504;53.766;9.626;2022-09-09T08:45:14;16.80;99.90
12872;DHT22;6504;53.766;9.626;2022-09-09T08:48:03;16.80;99.90
12872;DHT22;6504;53.766;9.626;2022-09-09T08:50:36;16.90;99.90
12872;DHT22;6504;53.766;9.626;2022-09-09T08:53:14;16.90;99.90
12872;DHT22;6504;53.766;9.626;2022-09-09T08:55:47;16.90;99.90
12872;DHT22;6504;53.766;9.626;2022-09-09T08:58:19;16.90;99.90
12872;DHT22;6504;53.766;9.626;2022-09-09T09:01:01;17.00;99.90
12872;DHT22;6504;53.766;9.626;2022-09-09T09:03:37;17.00;99.90
12872;DHT22;6504;53.766;9.626;2022-09-09T09:06:23;17.10;99.90
12872;DHT22;6504;53.766;9.626;2022-09-09T09:09:00;17.10;99.90
12872;DHT22;6504;53.766;9.626;2022-09-09T09:11:36;17.20;99.90
12872;DHT22;6504;53.766;9.626;2022-09-09T09:14:14;17.30;99.90
12872;DHT22;6504;53.766;9.626;2022-09-09T09:16:52;17.40;99.90
12872;DHT22;6504;53.766;9.626;2022-09-09T09:19:21;17.40;99.90
12872;DHT22;6504;53.766;9.626;2022-09-09T09:21:58;17.60;99.90
12872;DHT22;6504;53.766;9.626;2022-09-09T09:24:34;17.60;99.90
12872;DHT22;6504;53.766;9.626;2022-09-09T09:27:13;17.60;99.90
12872;DHT22;6504;53.766;9.626;2022-09-09T09:29:44;17.70;99.90
12872;DHT22;6504;53.766;9.626;2022-09-09T09:32:35;17.70;99.90
12872;DHT22;6504;53.766;9.626;2022-09-09T09:35:10;17.80;99.90
12872;DHT22;6504;53.766;9.626;2022-09-09T09:37:41;17.90;99.90
12872;DHT22;6504;53.766;9.626;2022-09-09T09:40:32;18.00;99.90
12872;DHT22;6504;53.766;9.626;2022-09-09T09:43:01;18.10;99.90
12872;DHT22;6504;53.766;9.626;2022-09-09T09:45:42;18.10;99.90
12872;DHT22;6504;53.766;9.626;2022-09-09T09:48:27;18.20;99.90
12872;DHT22;6504;53.766;9.626;2022-09-09T09:50:57;18.30;99.90
12872;DHT22;6504;53.766;9.626;2022-09-09T09:53:27;18.30;99.90
12872;DHT22;6504;53.766;9.626;2022-09-09T09:55:59;18.40;99.90
12872;DHT22;6504;53.766;9.626;2022-09-09T09:58:47;18.50;99.90
12872;DHT22;6504;53.766;9.626;2022-09-09T10:01:21;18.50;99.90
12872;DHT22;6504;53.766;9.626;2022-09-09T10:03:57;18.60;99.90
12872;DHT22;6504;53.766;9.626;2022-09-09T10:06:32;18.60;99.90
12872;DHT22;6504;53.766;9.626;2022-09-09T10:09:02;18.70;99.90
12872;DHT22;6504;53.766;9.626;2022-09-09T10:11:44;18.70;99.90
12872;DHT22;6504;53.766;9.626;2022-09-09T10:14:20;18.80;99.90
12872;DHT22;6504;53.766;9.626;2022-09-09T10:17:09;18.90;99.90
12872;DHT22;6504;53.766;9.626;2022-09-09T10:19:44;19.00;99.90
12872;DHT22;6504;53.766;9.626;2022-09-09T10:22:27;19.00;99.90
12872;DHT22;6504;53.766;9.626;2022-09-09T10:25:17;19.10;99.90
12872;DHT22;6504;53.766;9.626;2022-09-09T10:28:02;19.10;99.90
12872;DHT22;6504;53.766;9.626;2022-09-09T10:30:42;19.20;99.90
12872;DHT22;6504;53.766;9.626;2022-09-09T10:33:24;19.30;99.90
12872;DHT22;6504;53.766;9.626;2022-09-09T10:36:02;19.40;99.90
12872;DHT22;6504;53.766;9.626;2022-09-09T10:38:40;19.60;99.90
12872;DHT22;6504;53.766;9.626;2022-09-09T10:41:15;19.60;99.90
12872;DHT22;6504;53.766;9.626;2022-09-09T10:44:26;19.70;99.90
12872;DHT22;6504;53.766;9.626;2022-09-09T10:47:15;19.80;99.90
12872;DHT22;6504;53.766;9.626;2022-09-09T10:50:00;19.90;99.90
12872;DHT22;6504;53.766;9.626;2022-09-09T10:52:40;20.00;99.90
12872;DHT22;6504;53.766;9.626;2022-09-09T10:55:14;20.10;99.90
12872;DHT22;6504;53.766;9.626;2022-09-09T10:57:46;20.10;99.90
12872;DHT22;6504;53.766;9.626;2022-09-09T11:00:17;20.20;99.90
12872;DHT22;6504;53.766;9.626;2022-09-09T11:02:52;20.30;99.90
12872;DHT22;6504;53.766;9.626;2022-09-09T11:05:27;20.40;99.90
12872;DHT22;6504;53.766;9.626;2022-09-09T11:07:59;20.50;99.90
12872;DHT22;6504;53.766;9.626;2022-09-09T11:10:36;20.60;99.90
12872;DHT22;6504;53.766;9.626;2022-09-09T11:13:14;20.70;99.90
12872;DHT22;6504;53.766;9.626;2022-09-09T11:15:46;20.80;99.90
12872;DHT22;6504;53.766;9.626;2022-09-09T11:18:19;20.90;99.90
12872;DHT22;6504;53.766;9.626;2022-09-09T11:20:59;21.10;99.90
12872;DHT22;6504;53.766;9.626;2022-09-09T11:23:39;21.20;99.90
12872;DHT22;6504;53.766;9.626;2022-09-09T11:26:12;21.30;99.90
12872;DHT22;6504;53.766;9.626;2022-09-09T11:28:55;21.40;99.90
12872;DHT22;6504;53.766;9.626;2022-09-09T11:31:44;21.50;99.90
12872;DHT22;6504;53.766;9.626;2022-09-09T11:34:27;21.50;99.90
12872;DHT22;6504;53.766;9.626;2022-09-09T11:37:43;21.60;99.90
12872;DHT22;6504;53.766;9.626;2022-09-09T11:40:23;21.70;99.90
12872;DHT22;6504;53.766;9.626;2022-09-09T11:43:02;21.80;99.90
12872;DHT22;6504;53.766;9.626;2022-09-09T11:45:33;21.90;99.90
12872;DHT22;6504;53.766;9.626;2022-09-09T11:48:03;21.80;99.90
12872;DHT22;6504;53.766;9.626;2022-09-09T11:50:34;21.80;99.90
12872;DHT22;6504;53.766;9.626;2022-09-09T11:53:22;21.80;99.90
12872;DHT22;6504;53.766;9.626;2022-09-09T11:56:04;21.90;99.90
12872;DHT22;6504;53.766;9.626;2022-09-09T11:58:37;21.90;99.90
12872;DHT22;6504;53.766;9.626;2022-09-09T12:01:36;21.90;99.90
12872;DHT22;6504;53.766;9.626;2022-09-09T12:07:01;21.90;99.90
12872;DHT22;6504;53.766;9.626;2022-09-09T12:09:43;21.90;99.90
12872;DHT22;6504;53.766;9.626;2022-09-09T12:12:25;21.90;99.90
12872;DHT22;6504;53.766;9.626;2022-09-09T12:15:26;21.90;99.90
12872;DHT22;6504;53.766;9.626;2022-09-09T12:17:57;21.90;99.90
12872;DHT22;6504;53.766;9.626;2022-09-09T12:20:34;21.80;99.90
12872;DHT22;6504;53.766;9.626;2022-09-09T12:23:22;21.90;99.90
12872;DHT22;6504;53.766;9.626;2022-09-09T12:26:23;21.90;99.90
12872;DHT22;6504;53.766;9.626;2022-09-09T12:29:04;22.00;99.90
12872;DHT22;6504;53.766;9.626;2022-09-09T12:31:38;22.10;99.90
12872;DHT22;6504;53.766;9.626;2022-09-09T12:34:13;22.10;99.90
12872;DHT22;6504;53.766;9.626;2022-09-09T12:36:44;22.20;99.90
12872;DHT22;6504;53.766;9.626;2022-09-09T12:39:24;22.30;99.90
12872;DHT22;6504;53.766;9.626;2022-09-09T12:42:00;22.30;99.90
12872;DHT22;6504;53.766;9.626;2022-09-09T12:44:31;22.40;99.90
12872;DHT22;6504;53.766;9.626;2022-09-09T12:47:01;22.40;99.90
12872;DHT22;6504;53.766;9.626;2022-09-09T12:49:35;22.30;99.90
12872;DHT22;6504;53.766;9.626;2022-09-09T12:52:08;22.40;99.90
12872;DHT22;6504;53.766;9.626;2022-09-09T12:54:45;22.30;99.90
12872;DHT22;6504;53.766;9.626;2022-09-09T12:57:15;22.40;99.90
12872;DHT22;6504;53.766;9.626;2022-09-09T12:59:44;22.40;99.90
12872;DHT22;6504;53.766;9.626;2022-09-09T13:02:21;22.40;99.90
12872;DHT22;6504;53.766;9.626;2022-09-09T13:04:49;22.40;99.90
12872;DHT22;6504;53.766;9.626;2022-09-09T13:07:21;22.40;99.90
12872;DHT22;6504;53.766;9.626;2022-09-09T13:09:49;22.40;99.90
12872;DHT22;6504;53.766;9.626;2022-09-09T13:12:22;22.40;99.90
12872;DHT22;6504;53.766;9.626;2022-09-09T13:14:53;22.40;99.90
12872;DHT22;6504;53.766;9.626;2022-09-09T13:17:24;22.40;99.90
12872;DHT22;6504;53.766;9.626;2022-09-09T13:19:53;22.40;99.90
12872;DHT22;6504;53.766;9.626;2022-09-09T13:22:30;22.40;99.90
12872;DHT22;6504;53.766;9.626;2022-09-09T13:25:05;22.30;99.90
12872;DHT22;6504;53.766;9.626;2022-09-09T13:27:40;22.20;99.90
12872;DHT22;6504;53.766;9.626;2022-09-09T13:30:23;22.10;99.90
12872;DHT22;6504;53.766;9.626;2022-09-09T13:33:21;22.10;99.90
12872;DHT22;6504;53.766;9.626;2022-09-09T13:35:55;21.90;99.90
12872;DHT22;6504;53.766;9.626;2022-09-09T13:38:23;21.80;99.90
12872;DHT22;6504;53.766;9.626;2022-09-09T13:40:59;21.70;99.90
12872;DHT22;6504;53.766;9.626;2022-09-09T13:43:36;21.50;99.90
12872;DHT22;6504;53.766;9.626;2022-09-09T13:46:31;21.50;99.90
12872;DHT22;6504;53.766;9.626;2022-09-09T13:49:01;21.30;99.90
12872;DHT22;6504;53.766;9.626;2022-09-09T13:51:39;21.20;99.90
12872;DHT22;6504;53.766;9.626;2022-09-09T13:54:10;21.20;99.90
12872;DHT22;6504;53.766;9.626;2022-09-09T13:56:40;21.20;99.90
12872;DHT22;6504;53.766;9.626;2022-09-09T13:59:12;21.20;99.90
12872;DHT22;6504;53.766;9.626;2022-09-09T14:01:44;21.20;99.90
12872;DHT22;6504;53.766;9.626;2022-09-09T14:04:12;21.20;99.90
12872;DHT22;6504;53.766;9.626;2022-09-09T14:06:40;21.20;99.90
12872;DHT22;6504;53.766;9.626;2022-09-09T14:09:12;21.20;99.90
12872;DHT22;6504;53.766;9.626;2022-09-09T14:11:40;21.10;99.90
12872;DHT22;6504;53.766;9.626;2022-09-09T14:14:13;21.10;99.90
12872;DHT22;6504;53.766;9.626;2022-09-09T14:16:41;20.90;99.90
12872;DHT22;6504;53.766;9.626;2022-09-09T14:19:09;20.80;99.90
12872;DHT22;6504;53.766;9.626;2022-09-09T14:21:41;20.70;99.90
12872;DHT22;6504;53.766;9.626;2022-09-09T14:24:09;20.70;99.90
12872;DHT22;6504;53.766;9.626;2022-09-09T14:26:38;20.70;99.90
12872;DHT22;6504;53.766;9.626;2022-09-09T14:29:07;20.60;99.90
12872;DHT22;6504;53.766;9.626;2022-09-09T14:31:39;20.50;99.90
12872;DHT22;6504;53.766;9.626;2022-09-09T14:34:07;20.40;99.90
12872;DHT22;6504;53.766;9.626;2022-09-09T14:36:42;20.40;99.90
12872;DHT22;6504;53.766;9.626;2022-09-09T14:39:11;20.30;99.90
12872;DHT22;6504;53.766;9.626;2022-09-09T14:41:39;20.30;99.90
12872;DHT22;6504;53.766;9.626;2022-09-09T14:44:07;20.30;99.90
12872;DHT22;6504;53.766;9.626;2022-09-09T14:46:35;20.30;99.90
12872;DHT22;6504;53.766;9.626;2022-09-09T14:49:08;20.30;99.90
12872;DHT22;6504;53.766;9.626;2022-09-09T14:51:37;20.30;99.90
12872;DHT22;6504;53.766;9.626;2022-09-09T14:54:05;20.30;99.90
12872;DHT22;6504;53.766;9.626;2022-09-09T14:56:35;20.20;99.90
12872;DHT22;6504;53.766;9.626;2022-09-09T14:59:04;20.10;99.90
12872;DHT22;6504;53.766;9.626;2022-09-09T15:01:33;20.10;99.90
12872;DHT22;6504;53.766;9.626;2022-09-09T15:04:03;20.00;99.90
12872;DHT22;6504;53.766;9.626;2022-09-09T15:06:35;20.00;99.90
12872;DHT22;6504;53.766;9.626;2022-09-09T15:09:06;20.00;99.90
12872;DHT22;6504;53.766;9.626;2022-09-09T15:11:36;20.00;99.90
12872;DHT22;6504;53.766;9.626;2022-09-09T15:14:05;20.00;99.90
12872;DHT22;6504;53.766;9.626;2022-09-09T15:16:34;20.00;99.90
12872;DHT22;6504;53.766;9.626;2022-09-09T15:19:03;20.00;99.90
12872;DHT22;6504;53.766;9.626;2022-09-09T15:21:32;20.00;99.90
12872;DHT22;6504;53.766;9.626;2022-09-09T15:24:02;20.00;99.90
12872;DHT22;6504;53.766;9.626;2022-09-09T15:26:31;20.00;99.90
12872;DHT22;6504;53.766;9.626;2022-09-09T15:28:59;20.00;99.90
12872;DHT22;6504;53.766;9.626;2022-09-09T15:31:31;20.00;99.90
12872;DHT22;6504;53.766;9.626;2022-09-09T15:34:00;20.00;99.90
12872;DHT22;6504;53.766;9.626;2022-09-09T15:36:30;20.00;99.90
12872;DHT22;6504;53.766;9.626;2022-09-09T15:39:00;20.00;99.90
12872;DHT22;6504;53.766;9.626;2022-09-09T15:41:30;20.00;99.90
12872;DHT22;6504;53.766;9.626;2022-09-09T15:44:00;19.90;99.90
12872;DHT22;6504;53.766;9.626;2022-09-09T15:46:31;19.90;99.90
12872;DHT22;6504;53.766;9.626;2022-09-09T15:49:05;19.90;99.90
12872;DHT22;6504;53.766;9.626;2022-09-09T15:51:33;19.90;99.90
12872;DHT22;6504;53.766;9.626;2022-09-09T15:54:10;19.90;99.90
12872;DHT22;6504;53.766;9.626;2022-09-09T15:56:41;19.90;99.90
12872;DHT22;6504;53.766;9.626;2022-09-09T15:59:09;19.80;99.90
12872;DHT22;6504;53.766;9.626;2022-09-09T16:01:38;19.70;99.90
12872;DHT22;6504;53.766;9.626;2022-09-09T16:04:11;19.60;99.90
12872;DHT22;6504;53.766;9.626;2022-09-09T16:06:39;19.60;99.90
12872;DHT22;6504;53.766;9.626;2022-09-09T16:09:07;19.60;99.90
12872;DHT22;6504;53.766;9.626;2022-09-09T16:11:37;19.70;99.90
12872;DHT22;6504;53.766;9.626;2022-09-09T16:14:10;19.70;99.90
12872;DHT22;6504;53.766;9.626;2022-09-09T16:16:38;19.80;99.90
12872;DHT22;6504;53.766;9.626;2022-09-09T16:19:10;19.80;99.90
12872;DHT22;6504;53.766;9.626;2022-09-09T16:21:41;19.80;99.90
12872;DHT22;6504;53.766;9.626;2022-09-09T16:24:14;19.90;99.90
12872;DHT22;6504;53.766;9.626;2022-09-09T16:26:44;19.90;99.90
12872;DHT22;6504;53.766;9.626;2022-09-09T16:29:15;19.90;99.90
12872;DHT22;6504;53.766;9.626;2022-09-09T16:31:44;19.80;99.90